Port O'Connor, Texas
Current Conditions -  °F | °C
As of 8:53 PM on Friday 19 Dec 2014 (Local Time) from KPSX Reporting Station
Overcast Overcast  
Wind Chill: 57°   Ceiling: 800
Heat Index: 57°   Visibility: 7mi
Dew Point: 55°   Wind: 17mph
Humidity: 93%   Direction: 360°N
Pressure: 30.1"   Gusts: 25mph
Location:  28.45°N, 96.41°W
Report Text: KPSX 200253Z AUTO 36015G22KT 7SM OVC008 14/13 A3010 RMK AO2 RAB00E46 CIG 004V012 SLP191 P0000 60000 T01390128 51021
Loading
Personal Weather Stations






























Interactive Weather Map New forecast layout! Learn more

10-Day Weather Forecast

Advertisements
Track Severe Weather on mobile